Time;durP1;ratioP1;P1;durP2;ratioP2;P2;SDS_P1;SDS_P2;PMS_P1;PMS_P2;Temp;Humidity;BMP_temperature;BMP_pressure;BME280_temperature;BME280_humidity;BME280_pressure;Samples;Min_cycle;Max_cycle;Signal;HPM_P1;HPM_P2
2022/05/08 00:01:35;;;;;;;7.97;7.37;;;16.70;99.90;;;;;;4983574;28;20065;-86
2022/05/08 00:04:09;;;;;;;7.90;7.20;;;16.70;99.90;;;;;;4979724;28;20290;-85
2022/05/08 00:06:36;;;;;;;7.75;7.03;;;16.80;99.90;;;;;;4981497;28;20011;-85
2022/05/08 00:09:01;;;;;;;8.80;7.63;;;16.70;99.90;;;;;;4985522;28;20034;-86
2022/05/08 00:11:27;;;;;;;8.25;7.43;;;16.70;99.90;;;;;;4981203;28;20023;-91
2022/05/08 00:13:53;;;;;;;8.55;7.85;;;16.70;99.90;;;;;;4979519;28;20035;-90
2022/05/08 00:16:18;;;;;;;7.70;6.82;;;16.60;99.90;;;;;;4982611;28;20026;-91
2022/05/08 00:18:44;;;;;;;7.75;7.00;;;16.60;99.90;;;;;;4967157;28;20042;-89
2022/05/08 00:21:10;;;;;;;7.85;7.15;;;16.60;99.90;;;;;;4985680;28;20104;-90
2022/05/08 00:23:36;;;;;;;7.30;6.70;;;16.60;99.90;;;;;;4963138;28;20478;-89
2022/05/08 00:26:01;;;;;;;8.15;7.35;;;16.60;99.90;;;;;;4965061;28;20030;-88
2022/05/08 00:28:27;;;;;;;7.90;6.85;;;16.70;99.90;;;;;;4964326;28;20118;-88
2022/05/08 00:30:53;;;;;;;7.70;6.75;;;16.70;99.90;;;;;;4983512;28;20481;-89
2022/05/08 00:33:22;;;;;;;7.70;7.00;;;16.70;99.90;;;;;;4985737;28;20667;-86
2022/05/08 00:35:47;;;;;;;7.60;6.90;;;16.70;99.90;;;;;;4988124;28;20077;-95
2022/05/08 00:38:13;;;;;;;7.20;6.63;;;16.60;99.90;;;;;;4993069;28;20054;-95
2022/05/08 00:40:38;;;;;;;8.18;7.38;;;16.60;99.90;;;;;;4969507;28;20069;-94
2022/05/08 00:43:28;;;;;;;9.38;7.53;;;16.60;99.90;;;;;;4984255;28;20076;-92
2022/05/08 00:45:54;;;;;;;7.57;6.78;;;16.50;99.90;;;;;;4974544;28;20088;-92
2022/05/08 00:48:21;;;;;;;9.48;7.28;;;16.40;99.90;;;;;;4984754;28;20035;-93
2022/05/08 00:50:47;;;;;;;9.27;7.13;;;16.50;99.90;;;;;;4985608;28;20027;-87
2022/05/08 00:53:13;;;;;;;8.02;7.22;;;16.50;99.90;;;;;;4967326;28;20454;-88
2022/05/08 00:55:42;;;;;;;8.80;7.47;;;16.50;99.90;;;;;;4969692;28;20382;-90
2022/05/08 00:58:08;;;;;;;7.25;6.53;;;16.60;99.90;;;;;;4983035;28;20539;-90
2022/05/08 01:00:34;;;;;;;7.07;6.55;;;16.60;99.90;;;;;;4985600;28;20375;-92
2022/05/08 01:03:06;;;;;;;8.18;7.40;;;16.60;99.90;;;;;;4984591;28;20030;-91
2022/05/08 01:05:39;;;;;;;8.15;7.18;;;16.60;99.90;;;;;;4965915;28;20031;-91
2022/05/08 01:08:05;;;;;;;8.75;7.75;;;16.50;99.90;;;;;;4984421;28;20230;-94
2022/05/08 01:10:31;;;;;;;8.23;7.40;;;16.40;99.90;;;;;;4988958;28;20125;-91
2022/05/08 01:13:01;;;;;;;7.38;6.78;;;16.40;99.90;;;;;;4982356;28;20098;-92
2022/05/08 01:15:38;;;;;;;7.88;7.07;;;16.60;99.90;;;;;;4977490;28;20031;-93
2022/05/08 01:18:07;;;;;;;12.63;5.88;;;16.70;99.90;;;;;;4981825;28;20371;-89
2022/05/08 01:20:33;;;;;;;6.03;5.53;;;16.90;99.90;;;;;;4991109;28;20398;-93
2022/05/08 01:23:00;;;;;;;7.15;5.88;;;17.00;99.90;;;;;;4982252;28;20026;-94
2022/05/08 01:25:26;;;;;;;6.38;5.78;;;17.00;99.90;;;;;;4977062;28;20027;-96
2022/05/08 01:27:51;;;;;;;6.35;5.75;;;17.00;99.90;;;;;;4983699;28;20391;-90
2022/05/08 01:30:17;;;;;;;5.85;5.30;;;16.90;99.90;;;;;;4981190;28;20486;-90
2022/05/08 01:32:43;;;;;;;6.15;5.63;;;16.90;99.90;;;;;;4987097;28;20077;-95
2022/05/08 01:35:08;;;;;;;6.22;5.65;;;16.80;99.90;;;;;;4978895;28;20034;-96
2022/05/08 01:37:34;;;;;;;9.35;4.82;;;16.80;99.90;;;;;;4989581;28;20031;-96
2022/05/08 01:40:00;;;;;;;5.10;4.60;;;16.80;99.90;;;;;;4987548;28;20117;-94
2022/05/08 01:42:27;;;;;;;5.80;5.20;;;16.80;99.90;;;;;;4984435;28;20015;-94
2022/05/08 01:44:53;;;;;;;4.40;3.92;;;16.70;99.90;;;;;;4988791;28;20033;-94
2022/05/08 01:50:03;;;;;;;4.60;4.15;;;16.50;99.90;;;;;;4981246;28;20053;-91
2022/05/08 01:52:29;;;;;;;4.85;4.28;;;16.50;99.90;;;;;;4982488;28;20113;-90
2022/05/08 01:54:55;;;;;;;4.50;4.10;;;16.40;99.90;;;;;;4989116;28;20481;-91
2022/05/08 01:57:20;;;;;;;4.93;3.90;;;16.40;99.90;;;;;;4984450;28;20055;-92
2022/05/08 01:59:46;;;;;;;3.40;3.10;;;16.30;99.90;;;;;;4988936;28;20504;-91
2022/05/08 02:02:12;;;;;;;3.83;3.08;;;16.30;99.90;;;;;;4984493;28;20023;-92
2022/05/08 02:04:40;;;;;;;3.63;3.05;;;16.30;99.90;;;;;;4987550;28;20026;-91
2022/05/08 02:07:06;;;;;;;3.10;2.90;;;16.30;99.90;;;;;;4980755;28;20035;-89
2022/05/08 02:09:31;;;;;;;5.32;3.60;;;16.30;99.90;;;;;;4988117;28;20046;-91
2022/05/08 02:12:00;;;;;;;4.38;3.53;;;16.40;99.90;;;;;;4982607;28;20022;-92
2022/05/08 02:14:29;;;;;;;3.55;3.20;;;16.40;99.90;;;;;;4985037;28;20072;-93
2022/05/08 02:16:55;;;;;;;7.07;3.60;;;16.40;99.90;;;;;;4982492;28;20030;-92
2022/05/08 02:19:22;;;;;;;5.63;3.50;;;16.40;99.90;;;;;;4986126;28;20026;-92
2022/05/08 02:21:48;;;;;;;3.92;3.53;;;16.50;99.90;;;;;;4977449;28;20022;-92
2022/05/08 02:24:17;;;;;;;3.95;3.65;;;16.50;99.90;;;;;;4978745;28;20031;-94
2022/05/08 02:26:43;;;;;;;4.13;3.83;;;16.40;99.90;;;;;;4980075;28;20033;-92
2022/05/08 02:29:09;;;;;;;4.20;3.80;;;16.40;99.90;;;;;;4979770;28;20491;-91
2022/05/08 02:31:36;;;;;;;4.80;3.58;;;16.40;99.90;;;;;;4979122;28;20096;-92
2022/05/08 02:34:02;;;;;;;5.00;3.65;;;16.40;99.90;;;;;;4983915;28;20578;-91
2022/05/08 02:36:28;;;;;;;3.58;3.28;;;16.40;99.90;;;;;;4985555;28;20133;-92
2022/05/08 02:38:53;;;;;;;4.70;3.70;;;16.40;99.90;;;;;;4985945;28;20061;-96
2022/05/08 02:41:19;;;;;;;6.45;4.40;;;16.30;99.90;;;;;;4985827;28;20073;-93
2022/05/08 02:43:45;;;;;;;5.03;3.90;;;16.20;99.90;;;;;;4962399;28;20035;-93
2022/05/08 02:46:10;;;;;;;5.05;3.97;;;16.20;99.90;;;;;;4980506;28;20099;-95
2022/05/08 02:48:37;;;;;;;5.07;4.43;;;16.00;99.90;;;;;;4983466;28;20130;-90
2022/05/08 02:51:06;;;;;;;5.40;4.55;;;15.90;99.90;;;;;;4972134;28;20495;-91
2022/05/08 02:53:34;;;;;;;5.07;4.60;;;15.90;99.90;;;;;;4982392;28;20105;-91
2022/05/08 02:58:51;;;;;;;6.00;5.20;;;15.70;99.90;;;;;;4986154;28;20033;-90
2022/05/08 03:01:23;;;;;;;6.57;5.57;;;15.50;99.90;;;;;;4986535;28;20026;-91
2022/05/08 03:03:49;;;;;;;7.60;5.88;;;15.40;99.90;;;;;;4963285;28;20125;-91
2022/05/08 03:06:15;;;;;;;6.40;5.80;;;15.40;99.90;;;;;;4962769;28;20055;-91
2022/05/08 03:08:41;;;;;;;10.32;6.25;;;15.40;99.90;;;;;;4966609;28;20069;-92
2022/05/08 03:13:57;;;;;;;6.88;5.60;;;15.30;99.90;;;;;;4984013;28;20401;-90
2022/05/08 03:16:26;;;;;;;9.70;5.55;;;15.30;99.90;;;;;;4983434;28;20104;-92
2022/05/08 03:18:52;;;;;;;6.70;5.97;;;15.30;99.90;;;;;;4985828;28;20168;-91
2022/05/08 03:21:18;;;;;;;8.85;6.10;;;15.30;99.90;;;;;;4982129;28;20109;-89
2022/05/08 03:23:48;;;;;;;6.53;5.70;;;15.30;99.90;;;;;;4978337;28;20023;-91
2022/05/08 03:26:16;;;;;;;9.98;5.70;;;15.30;99.90;;;;;;4982247;28;20086;-94
2022/05/08 03:28:42;;;;;;;6.68;5.90;;;15.40;99.90;;;;;;4962248;28;20074;-91
2022/05/08 03:31:11;;;;;;;8.82;5.97;;;15.40;99.90;;;;;;4970606;28;20026;-92
2022/05/08 03:33:39;;;;;;;6.63;5.75;;;15.40;99.90;;;;;;4985714;28;20031;-92
2022/05/08 03:36:06;;;;;;;7.53;5.55;;;15.40;99.90;;;;;;4984189;28;20057;-93
2022/05/08 03:38:35;;;;;;;5.65;5.13;;;15.40;99.90;;;;;;4967359;28;20086;-91
2022/05/08 03:41:04;;;;;;;9.52;5.82;;;15.40;99.90;;;;;;4989086;28;20034;-92
2022/05/08 03:43:36;;;;;;;8.73;5.28;;;15.50;99.90;;;;;;4987920;28;20041;-96
2022/05/08 03:46:02;;;;;;;7.20;5.75;;;15.50;99.90;;;;;;4985021;28;20031;-91
2022/05/08 03:48:28;;;;;;;5.90;5.40;;;15.50;99.90;;;;;;4983151;28;20462;-92
2022/05/08 03:50:54;;;;;;;6.95;5.80;;;15.50;99.90;;;;;;4980807;28;20270;-90
2022/05/08 03:53:20;;;;;;;9.60;6.40;;;15.60;99.90;;;;;;4985500;28;20026;-92
2022/05/08 03:55:46;;;;;;;7.00;6.30;;;15.60;99.90;;;;;;4979184;28;20038;-89
2022/05/08 03:58:11;;;;;;;11.10;6.68;;;15.70;99.90;;;;;;4985265;28;20093;-91
2022/05/08 04:00:42;;;;;;;9.50;6.90;;;15.80;99.90;;;;;;4989368;28;20034;-92
2022/05/08 04:03:08;;;;;;;10.07;7.40;;;15.80;99.90;;;;;;4984313;28;20046;-90
2022/05/08 04:05:34;;;;;;;8.75;7.85;;;15.90;99.90;;;;;;4979616;28;20068;-89
2022/05/08 04:08:00;;;;;;;9.75;8.75;;;16.00;99.90;;;;;;4984662;28;20389;-91
2022/05/08 04:10:26;;;;;;;9.20;8.30;;;16.10;99.90;;;;;;4986142;28;20046;-91
2022/05/08 04:12:51;;;;;;;9.93;8.93;;;16.00;99.90;;;;;;4965748;28;20027;-90
2022/05/08 04:18:01;;;;;;;9.40;8.60;;;16.10;99.90;;;;;;4983012;28;20556;-92
2022/05/08 04:20:27;;;;;;;8.93;8.13;;;16.20;99.90;;;;;;4969794;28;20031;-91
2022/05/08 04:25:37;;;;;;;10.13;8.52;;;16.20;99.90;;;;;;4981198;28;20034;-94
2022/05/08 04:28:03;;;;;;;11.98;8.93;;;16.30;99.90;;;;;;4986015;28;20023;-91
2022/05/08 04:30:29;;;;;;;11.73;8.73;;;16.40;99.90;;;;;;4982628;28;20084;-92
2022/05/08 04:32:55;;;;;;;14.05;8.32;;;16.40;99.90;;;;;;4966282;28;20378;-91
2022/05/08 04:35:20;;;;;;;14.15;9.57;;;16.50;99.90;;;;;;4979337;28;20108;-89
2022/05/08 04:37:46;;;;;;;12.20;10.90;;;16.50;99.90;;;;;;4983421;28;20026;-90
2022/05/08 04:40:12;;;;;;;12.25;10.95;;;16.60;99.90;;;;;;4978236;28;20023;-91
2022/05/08 04:42:39;;;;;;;26.00;11.73;;;16.70;99.90;;;;;;4985070;28;20026;-96
2022/05/08 04:45:08;;;;;;;13.50;12.07;;;16.70;99.90;;;;;;4985376;28;20036;-92
2022/05/08 04:47:37;;;;;;;14.43;12.98;;;16.80;99.90;;;;;;4967727;28;20030;-92
2022/05/08 04:50:03;;;;;;;19.52;13.45;;;16.80;99.90;;;;;;4984256;28;20146;-93
2022/05/08 04:52:29;;;;;;;19.50;14.02;;;16.80;99.90;;;;;;4984006;28;20035;-91
2022/05/08 04:54:54;;;;;;;16.00;14.45;;;16.90;99.90;;;;;;4967712;28;20022;-92
2022/05/08 04:57:20;;;;;;;16.27;14.55;;;16.90;99.90;;;;;;4983259;28;20061;-91
2022/05/08 04:59:46;;;;;;;15.98;13.95;;;16.90;99.90;;;;;;4979878;28;20097;-92
2022/05/08 05:02:12;;;;;;;17.48;14.43;;;17.00;99.90;;;;;;4986302;28;20412;-94
2022/05/08 05:04:39;;;;;;;15.35;13.93;;;17.00;99.90;;;;;;4986349;28;20027;-92
2022/05/08 05:07:08;;;;;;;15.63;14.05;;;17.10;99.90;;;;;;4984725;28;20485;-91
2022/05/08 05:09:34;;;;;;;16.52;14.80;;;17.20;99.90;;;;;;4984227;28;20034;-90
2022/05/08 05:12:06;;;;;;;15.90;14.18;;;17.20;99.90;;;;;;4966158;28;20044;-91
2022/05/08 05:14:32;;;;;;;27.90;15.40;;;17.20;99.90;;;;;;4980702;28;20038;-90
2022/05/08 05:17:00;;;;;;;26.10;15.23;;;17.30;99.90;;;;;;4983982;28;20030;-86
2022/05/08 05:19:27;;;;;;;16.30;14.57;;;17.30;99.90;;;;;;4986012;28;20105;-92
2022/05/08 05:21:53;;;;;;;16.40;14.77;;;17.40;99.90;;;;;;4982665;28;20056;-86
2022/05/08 05:24:32;;;;;;;18.60;15.18;;;17.30;99.90;;;;;;4984318;28;20022;-89
2022/05/08 05:26:59;;;;;;;17.10;15.32;;;17.40;99.90;;;;;;4972773;28;20029;-87
2022/05/08 05:29:28;;;;;;;16.35;14.63;;;17.40;99.90;;;;;;4980971;28;20129;-92
2022/05/08 05:31:57;;;;;;;23.85;16.13;;;17.50;99.90;;;;;;4981744;28;20045;-88
2022/05/08 05:34:23;;;;;;;16.38;14.57;;;17.40;99.90;;;;;;4976909;28;20486;-87
2022/05/08 05:36:58;;;;;;;25.90;15.23;;;17.40;99.90;;;;;;4981366;28;20027;-84
2022/05/08 05:39:24;;;;;;;17.27;14.93;;;17.50;99.90;;;;;;4982147;28;20034;-86
2022/05/08 05:41:50;;;;;;;22.60;14.95;;;17.50;99.90;;;;;;4979658;28;20390;-85
2022/05/08 05:44:16;;;;;;;26.95;14.25;;;17.60;99.90;;;;;;4977616;28;20037;-85
2022/05/08 05:49:27;;;;;;;17.98;14.35;;;17.80;99.90;;;;;;4983035;28;20093;-84
2022/05/08 05:51:57;;;;;;;18.30;14.38;;;17.80;99.90;;;;;;4964281;28;20471;-87
2022/05/08 05:54:24;;;;;;;16.73;14.70;;;17.80;99.90;;;;;;4967966;28;20037;-87
2022/05/08 05:56:50;;;;;;;16.60;13.25;;;17.90;99.90;;;;;;4979972;28;20038;-88
2022/05/08 05:59:16;;;;;;;17.58;14.70;;;17.90;99.90;;;;;;4977709;28;20109;-87
2022/05/08 06:01:43;;;;;;;14.98;13.40;;;17.90;99.90;;;;;;4983242;28;20110;-87
2022/05/08 06:04:09;;;;;;;17.40;14.95;;;18.00;99.90;;;;;;4977361;28;20027;-83
2022/05/08 06:06:37;;;;;;;16.85;15.15;;;18.00;99.90;;;;;;4982364;28;20390;-82
2022/05/08 06:09:07;;;;;;;16.33;14.50;;;18.10;99.90;;;;;;4977671;28;20030;-84
2022/05/08 06:11:35;;;;;;;15.45;13.88;;;18.10;99.90;;;;;;4962523;28;20023;-82
2022/05/08 06:14:01;;;;;;;20.10;15.27;;;18.10;99.90;;;;;;4975957;28;20027;-82
2022/05/08 06:16:27;;;;;;;18.55;15.10;;;18.20;99.90;;;;;;4967512;28;20061;-82
2022/05/08 06:18:52;;;;;;;18.02;14.00;;;18.20;99.90;;;;;;4964539;28;20062;-81
2022/05/08 06:21:18;;;;;;;15.75;14.18;;;18.30;99.90;;;;;;4979461;28;20474;-85
2022/05/08 06:23:44;;;;;;;16.23;14.27;;;18.40;99.90;;;;;;4968232;28;20042;-89
2022/05/08 06:26:10;;;;;;;15.07;13.65;;;18.50;99.90;;;;;;4980534;28;20022;-84
2022/05/08 06:28:36;;;;;;;15.63;13.90;;;18.50;99.90;;;;;;4983966;28;20545;-90
2022/05/08 06:31:02;;;;;;;16.58;13.93;;;18.50;99.90;;;;;;4973303;28;20397;-88
2022/05/08 06:33:28;;;;;;;15.77;14.10;;;18.60;99.90;;;;;;4971499;28;20030;-92
2022/05/08 06:35:54;;;;;;;16.08;14.38;;;18.60;99.90;;;;;;4980982;28;20033;-90
2022/05/08 06:38:19;;;;;;;19.65;13.95;;;18.70;99.90;;;;;;4966714;28;20169;-85
2022/05/08 06:40:45;;;;;;;17.95;14.30;;;18.80;99.90;;;;;;4968776;28;20038;-87
2022/05/08 06:43:11;;;;;;;17.58;14.77;;;18.80;99.90;;;;;;4982103;28;20474;-88
2022/05/08 06:45:37;;;;;;;20.05;15.48;;;18.80;99.90;;;;;;4981049;28;20034;-86
2022/05/08 06:48:03;;;;;;;19.92;15.38;;;18.90;99.90;;;;;;4982198;28;20054;-92
2022/05/08 06:50:30;;;;;;;17.88;14.98;;;18.90;99.90;;;;;;4988605;28;20044;-85
2022/05/08 06:52:56;;;;;;;16.77;14.95;;;19.00;99.90;;;;;;4981452;28;20482;-87
2022/05/08 06:55:21;;;;;;;17.08;15.20;;;19.00;99.90;;;;;;4982246;28;20041;-86
2022/05/08 06:57:47;;;;;;;17.40;14.63;;;19.10;99.90;;;;;;4980450;28;20104;-87
2022/05/08 07:03:07;;;;;;;20.27;15.82;;;19.30;99.90;;;;;;4986802;28;20022;-86
2022/05/08 07:05:37;;;;;;;17.83;14.82;;;19.50;99.90;;;;;;4979527;28;20375;-88
2022/05/08 07:08:03;;;;;;;17.00;15.20;;;19.60;99.90;;;;;;4989947;28;20029;-86
2022/05/08 07:10:29;;;;;;;19.27;14.50;;;19.70;99.90;;;;;;4986750;28;20035;-86
2022/05/08 07:12:56;;;;;;;17.80;14.18;;;19.80;99.90;;;;;;4984432;28;20033;-87
2022/05/08 07:15:22;;;;;;;22.58;15.38;;;19.80;99.90;;;;;;4983902;28;20461;-87
2022/05/08 07:17:47;;;;;;;16.27;14.85;;;19.80;99.90;;;;;;4973004;28;20094;-89
2022/05/08 07:20:13;;;;;;;16.80;14.77;;;19.80;99.90;;;;;;4986975;28;20320;-88
2022/05/08 07:22:39;;;;;;;18.67;14.98;;;19.80;99.90;;;;;;4967715;28;20034;-88
2022/05/08 07:25:06;;;;;;;18.48;14.73;;;19.80;99.90;;;;;;4988239;28;20031;-90
2022/05/08 07:27:36;;;;;;;16.52;14.82;;;20.00;99.90;;;;;;4983007;28;20474;-86
2022/05/08 07:30:04;;;;;;;17.75;14.95;;;20.00;99.90;;;;;;4979670;28;20030;-88
2022/05/08 07:32:30;;;;;;;16.58;14.85;;;20.00;99.90;;;;;;4971062;28;20552;-90
2022/05/08 07:37:41;;;;;;;17.90;16.05;;;20.10;99.90;;;;;;4986150;28;20105;-87
2022/05/08 07:40:07;;;;;;;17.70;14.82;;;20.20;99.90;;;;;;4980867;28;20505;-85
2022/05/08 07:42:33;;;;;;;20.33;15.07;;;20.30;99.90;;;;;;4985207;28;20031;-85
2022/05/08 07:44:58;;;;;;;15.95;14.10;;;20.50;99.90;;;;;;4977892;28;20089;-88
2022/05/08 07:47:24;;;;;;;19.67;17.67;;;20.60;99.90;;;;;;4987592;28;20461;-89
2022/05/08 07:49:50;;;;;;;16.98;13.77;;;20.80;99.90;;;;;;4987893;28;20114;-89
2022/05/08 07:52:16;;;;;;;20.88;14.52;;;20.90;99.90;;;;;;4987076;28;20113;-89
2022/05/08 07:54:44;;;;;;;15.85;13.13;;;21.10;99.90;;;;;;4987412;28;20023;-88
2022/05/08 07:57:10;;;;;;;17.35;13.55;;;21.10;99.90;;;;;;4984994;28;20050;-90
2022/05/08 07:59:39;;;;;;;14.90;13.23;;;21.20;99.90;;;;;;4989566;28;20038;-90
2022/05/08 08:02:05;;;;;;;15.80;12.88;;;21.30;99.90;;;;;;4986762;28;20030;-91
2022/05/08 08:04:41;;;;;;;14.07;12.50;;;21.40;99.90;;;;;;4990147;28;20565;-89
2022/05/08 08:07:07;;;;;;;13.68;12.18;;;21.50;99.90;;;;;;4986949;28;20027;-87
2022/05/08 08:09:33;;;;;;;14.40;12.50;;;21.50;99.90;;;;;;4983683;28;20409;-84
2022/05/08 08:11:59;;;;;;;14.85;12.40;;;21.40;99.90;;;;;;4982198;28;20018;-92
2022/05/08 08:14:25;;;;;;;13.73;11.48;;;21.50;99.90;;;;;;4979304;28;20398;-91
2022/05/08 08:16:51;;;;;;;13.45;11.68;;;21.50;99.90;;;;;;4986634;28;20026;-89
2022/05/08 08:19:17;;;;;;;15.10;11.77;;;21.60;99.90;;;;;;4988005;28;20023;-89
2022/05/08 08:21:45;;;;;;;13.20;11.20;;;21.80;99.90;;;;;;4987204;28;20027;-89
2022/05/08 08:24:11;;;;;;;17.08;11.80;;;21.90;99.90;;;;;;4961836;28;20169;-88
2022/05/08 08:26:39;;;;;;;12.88;11.32;;;22.10;99.90;;;;;;4966286;28;20109;-89
2022/05/08 08:29:04;;;;;;;12.88;11.57;;;22.40;99.90;;;;;;4986129;28;20031;-88
2022/05/08 08:31:30;;;;;;;16.42;11.52;;;22.60;99.90;;;;;;4986598;28;20415;-89
2022/05/08 08:33:58;;;;;;;14.07;11.68;;;22.70;99.90;;;;;;4981556;28;20498;-90
2022/05/08 08:36:24;;;;;;;12.38;10.70;;;22.60;99.90;;;;;;4980730;28;20023;-91
2022/05/08 08:38:50;;;;;;;15.23;11.90;;;22.50;99.90;;;;;;4965679;28;20030;-90
2022/05/08 08:41:21;;;;;;;20.17;11.07;;;22.40;99.90;;;;;;4982105;28;20034;-90
2022/05/08 08:49:23;;;;;;;11.30;10.20;;;22.20;99.90;;;;;;4988472;28;20045;-89
2022/05/08 08:51:49;;;;;;;14.02;11.05;;;22.10;99.90;;;;;;4981514;28;20033;-90
2022/05/08 08:54:19;;;;;;;12.52;10.10;;;22.10;99.90;;;;;;4982587;28;20031;-88
2022/05/08 08:56:44;;;;;;;10.52;9.50;;;22.20;99.90;;;;;;4986485;28;20046;-93
2022/05/08 08:59:10;;;;;;;12.95;9.55;;;22.20;99.90;;;;;;4987898;28;20023;-90
2022/05/08 09:01:43;;;;;;;13.00;10.52;;;22.10;99.90;;;;;;4985203;28;20030;-89
2022/05/08 09:04:11;;;;;;;11.90;9.88;;;22.10;99.90;;;;;;4971689;28;20035;-94
2022/05/08 09:06:41;;;;;;;10.60;9.52;;;22.20;99.90;;;;;;4978410;28;20109;-92
2022/05/08 09:09:33;;;;;;;12.10;9.43;;;22.40;99.90;;;;;;4989572;28;20129;-91
2022/05/08 09:11:58;;;;;;;15.30;9.70;;;22.50;99.90;;;;;;4981904;28;20104;-92
2022/05/08 09:14:35;;;;;;;10.13;9.15;;;22.60;99.90;;;;;;4980768;28;20086;-92
2022/05/08 09:17:05;;;;;;;10.68;9.43;;;22.90;99.90;;;;;;4987537;28;20042;-91
2022/05/08 09:19:39;;;;;;;14.52;10.15;;;23.10;99.90;;;;;;4989362;28;20031;-91
2022/05/08 09:22:06;;;;;;;10.98;9.05;;;23.30;99.90;;;;;;4969577;28;20026;-90
2022/05/08 09:24:34;;;;;;;12.70;9.50;;;23.60;99.90;;;;;;4961628;28;20176;-91
2022/05/08 09:27:14;;;;;;;9.43;8.52;;;23.90;99.90;;;;;;4975070;28;20389;-91
2022/05/08 09:29:41;;;;;;;10.05;7.70;;;24.10;99.90;;;;;;4983238;28;20036;-91
2022/05/08 09:32:07;;;;;;;10.45;7.80;;;24.40;99.90;;;;;;4956124;28;20034;-93
2022/05/08 09:34:57;;;;;;;10.80;8.68;;;24.60;99.90;;;;;;4961074;28;20037;-92
2022/05/08 09:37:27;;;;;;;8.73;7.82;;;24.70;99.90;;;;;;4961864;28;20038;-92
2022/05/08 09:40:16;;;;;;;9.80;7.68;;;24.70;99.90;;;;;;4960266;28;20022;-92
2022/05/08 09:42:42;;;;;;;9.40;7.57;;;24.70;99.90;;;;;;4985190;28;20023;-90
2022/05/08 09:45:10;;;;;;;10.30;7.80;;;24.70;99.90;;;;;;4988118;28;20507;-87
2022/05/08 09:48:03;;;;;;;14.98;7.70;;;24.70;99.90;;;;;;4965427;28;20026;-90
2022/05/08 09:50:29;;;;;;;10.25;6.97;;;24.60;99.90;;;;;;4986711;28;20042;-91
2022/05/08 09:52:55;;;;;;;15.20;7.68;;;24.70;99.90;;;;;;4981760;28;20030;-90
2022/05/08 09:55:21;;;;;;;13.40;7.63;;;25.00;99.90;;;;;;4981269;28;20050;-89
2022/05/08 09:57:47;;;;;;;7.30;6.57;;;25.20;99.90;;;;;;4983561;28;20034;-93
2022/05/08 10:00:13;;;;;;;11.30;6.90;;;25.30;99.90;;;;;;4985470;28;20510;-90
2022/05/08 10:02:43;;;;;;;9.40;6.97;;;25.30;99.90;;;;;;4984933;28;20027;-91
2022/05/08 10:05:10;;;;;;;10.27;6.65;;;25.30;99.90;;;;;;4985826;28;20394;-86
2022/05/08 10:07:38;;;;;;;13.23;6.60;;;25.40;99.90;;;;;;4966383;28;20026;-85
2022/05/08 10:15:40;;;;;;;10.20;6.65;;;25.20;99.90;;;;;;4985212;28;20088;-90
2022/05/08 10:18:24;;;;;;;10.40;6.90;;;25.20;99.90;;;;;;4970272;28;20034;-91
2022/05/08 10:21:02;;;;;;;9.07;6.93;;;25.20;99.90;;;;;;4965395;28;20629;-89
2022/05/08 10:23:40;;;;;;;7.72;6.30;;;25.60;99.90;;;;;;4969098;28;20033;-88
2022/05/08 10:26:17;;;;;;;9.27;6.43;;;25.90;99.90;;;;;;4966441;28;20039;-88
2022/05/08 10:29:01;;;;;;;11.38;6.75;;;25.80;99.90;;;;;;4965416;28;20065;-91
2022/05/08 10:31:55;;;;;;;7.18;6.03;;;26.00;99.90;;;;;;4972071;28;20180;-88
2022/05/08 10:34:32;;;;;;;10.75;6.35;;;26.00;99.90;;;;;;4984419;28;20548;-90
2022/05/08 10:37:13;;;;;;;11.88;6.75;;;25.80;99.90;;;;;;4989944;28;20081;-94
2022/05/08 10:39:43;;;;;;;9.57;6.20;;;25.50;99.90;;;;;;4985419;28;20049;-84
2022/05/08 10:42:42;;;;;;;8.40;5.93;;;25.40;99.90;;;;;;4992916;28;20035;-94
2022/05/08 10:45:33;;;;;;;7.13;6.07;;;25.40;99.90;;;;;;4982383;28;20039;-94
2022/05/08 10:48:07;;;;;;;8.73;6.30;;;25.60;99.90;;;;;;4999691;28;20085;-93
2022/05/08 10:50:38;;;;;;;11.93;6.25;;;25.80;99.90;;;;;;4982506;28;20036;-88
2022/05/08 10:53:04;;;;;;;10.10;5.47;;;26.10;99.90;;;;;;4999700;28;20078;-94
2022/05/08 10:55:31;;;;;;;16.85;5.82;;;26.10;99.90;;;;;;4991272;28;20494;-95
2022/05/08 10:57:57;;;;;;;8.20;5.85;;;26.00;99.90;;;;;;4998973;28;20501;-96
2022/05/08 11:00:29;;;;;;;8.60;5.32;;;25.90;99.90;;;;;;4977675;28;20037;-96
2022/05/08 11:02:56;;;;;;;;;;;25.60;99.90;;;;;;5005590;28;20026;-96
2022/05/08 11:05:32;;;;;;;6.10;5.38;;;25.50;99.90;;;;;;4993966;28;19913;-92
2022/05/08 11:08:01;;;;;;;8.18;6.15;;;25.60;99.90;;;;;;4977719;28;20101;-92
2022/05/08 11:10:31;;;;;;;8.50;5.75;;;25.50;99.90;;;;;;4984499;28;20531;-93
2022/05/08 11:13:01;;;;;;;8.05;5.32;;;25.60;99.90;;;;;;4990359;28;20033;-91
2022/05/08 11:15:38;;;;;;;13.88;5.45;;;25.90;99.90;;;;;;4976140;28;20492;-89
2022/05/08 11:18:09;;;;;;;9.85;5.40;;;26.30;99.90;;;;;;4983431;28;20031;-91
2022/05/08 11:21:02;;;;;;;15.60;5.60;;;26.80;99.90;;;;;;4977941;28;20027;-92
2022/05/08 11:23:33;;;;;;;5.95;5.18;;;26.80;99.90;;;;;;4985236;28;20094;-93
2022/05/08 11:26:08;;;;;;;9.48;5.72;;;27.00;99.90;;;;;;4981714;28;20382;-92
2022/05/08 11:28:50;;;;;;;7.45;5.18;;;26.80;99.90;;;;;;4968782;28;20030;-95
2022/05/08 11:31:18;;;;;;;9.63;5.10;;;27.20;99.90;;;;;;4970038;28;20046;-92
2022/05/08 11:36:34;;;;;;;8.73;5.32;;;27.80;99.90;;;;;;4989451;28;20037;-93
2022/05/08 11:39:03;;;;;;;6.05;4.90;;;27.50;99.90;;;;;;4980397;28;20033;-93
2022/05/08 11:41:32;;;;;;;9.25;5.32;;;27.30;99.90;;;;;;4987739;28;20118;-92
2022/05/08 11:44:02;;;;;;;8.07;4.95;;;27.40;99.90;;;;;;4965802;28;20026;-92
2022/05/08 11:46:46;;;;;;;8.93;4.47;;;27.80;99.90;;;;;;4969004;28;20031;-94
2022/05/08 11:49:26;;;;;;;7.05;4.72;;;28.00;99.90;;;;;;4990078;28;20034;-93
2022/05/08 11:51:59;;;;;;;8.30;4.57;;;28.10;98.70;;;;;;4988539;28;20022;-91
2022/05/08 11:54:35;;;;;;;7.28;4.50;;;28.00;99.10;;;;;;4982505;28;20504;-91
2022/05/08 11:57:19;;;;;;;9.00;4.30;;;28.30;99.10;;;;;;4986211;28;20061;-91
2022/05/08 11:59:51;;;;;;;8.73;4.55;;;28.90;99.40;;;;;;4975831;28;20026;-94
2022/05/08 12:02:18;;;;;;;7.32;4.47;;;29.40;95.20;;;;;;4968876;28;20504;-92
2022/05/08 12:04:57;;;;;;;9.75;3.78;;;31.20;94.30;;;;;;4983828;28;20030;-90
2022/05/08 12:07:23;;;;;;;5.43;3.88;;;33.20;92.10;;;;;;4981779;28;20033;-92
2022/05/08 12:09:52;;;;;;;12.45;3.88;;;35.50;87.30;;;;;;4977735;28;20035;-90
2022/05/08 12:12:33;;;;;;;7.07;3.92;;;37.30;76.80;;;;;;4986939;28;20021;-87
2022/05/08 12:15:04;;;;;;;20.55;4.70;;;39.30;71.70;;;;;;4981624;28;20090;-92
2022/05/08 12:17:50;;;;;;;5.63;4.10;;;40.90;66.90;;;;;;4990383;28;20190;-94
2022/05/08 12:20:26;;;;;;;9.98;3.90;;;40.00;61.90;;;;;;4989763;28;20041;-90
2022/05/08 12:23:05;;;;;;;4.10;3.72;;;39.80;60.10;;;;;;4987301;28;20027;-92
2022/05/08 12:25:40;;;;;;;5.38;3.80;;;39.50;58.70;;;;;;4961599;28;20468;-93
2022/05/08 12:28:06;;;;;;;6.07;3.85;;;39.90;57.50;;;;;;4984240;28;20026;-95
2022/05/08 12:30:32;;;;;;;9.68;3.58;;;40.50;56.10;;;;;;4970372;28;20073;-92
2022/05/08 12:32:58;;;;;;;8.18;3.63;;;40.50;56.50;;;;;;4988783;28;20022;-93
2022/05/08 12:35:24;;;;;;;7.57;3.92;;;40.60;57.40;;;;;;4983426;28;20037;-94
2022/05/08 12:37:50;;;;;;;7.07;3.63;;;41.40;54.90;;;;;;4970207;28;20026;-93
2022/05/08 12:40:17;;;;;;;7.50;3.75;;;42.00;52.90;;;;;;4977757;28;20394;-93
2022/05/08 12:42:43;;;;;;;6.90;3.90;;;42.50;53.10;;;;;;4986142;28;20027;-94
2022/05/08 12:45:10;;;;;;;6.13;3.67;;;43.00;52.30;;;;;;4989157;28;20142;-91
2022/05/08 12:47:36;;;;;;;9.07;3.25;;;44.30;51.70;;;;;;4984058;28;20018;-94
2022/05/08 12:50:02;;;;;;;8.73;3.53;;;44.20;50.70;;;;;;4973309;28;20030;-91
2022/05/08 12:52:28;;;;;;;8.90;3.03;;;42.60;49.90;;;;;;4970992;28;20029;-92
2022/05/08 12:54:54;;;;;;;6.88;3.80;;;40.80;53.40;;;;;;4978711;28;20109;-92
2022/05/08 13:00:05;;;;;;;3.28;2.97;;;42.20;51.80;;;;;;4987780;28;20046;-92
2022/05/08 13:02:31;;;;;;;5.47;3.00;;;43.60;49.00;;;;;;4984166;28;20026;-92
2022/05/08 13:04:57;;;;;;;6.97;3.28;;;43.10;48.40;;;;;;4982772;28;20022;-93
2022/05/08 13:07:22;;;;;;;7.15;3.40;;;43.20;48.60;;;;;;4982130;28;20029;-90
2022/05/08 13:09:49;;;;;;;5.07;3.50;;;43.90;47.60;;;;;;4979272;28;20046;-91
2022/05/08 13:12:15;;;;;;;9.45;3.28;;;44.40;47.40;;;;;;4967273;28;20026;-92
2022/05/08 13:14:43;;;;;;;5.82;2.90;;;44.40;47.20;;;;;;4989238;28;20276;-92
2022/05/08 13:17:10;;;;;;;3.58;3.15;;;43.80;47.50;;;;;;4984009;28;20023;-96
2022/05/08 13:19:36;;;;;;;6.82;2.85;;;42.30;48.80;;;;;;4989148;28;20397;-93
2022/05/08 13:22:06;;;;;;;6.93;3.30;;;41.70;49.20;;;;;;4989596;28;20014;-94
2022/05/08 13:24:33;;;;;;;6.68;3.30;;;40.70;50.10;;;;;;4975137;28;20026;-95